LKVO METAR and TAF | Updated Today

LKVO METAR

Vodochody Airport

Observation time: 8:08 hr. ago

LKVO 291300Z 09006KT 050V140 9999 FEW033 BKN072 13/06 Q1004

Need help? Read our tutorial on how to read METARs or read the parsed version below.

Vodochody Airport (LKVO) METAR

  • Weather conditions on Thu, 29 Sep 2022 13:00:00 +0000 (8:08 hr. ago):
  • Present conditions: Dry
  • Clouds: A few at 1006 meters; broken sky at 2195 meters
  • Visibility: Greater than 10 km
  • Wind: 90 degrees at 6 knots
  • Temperature: 13 celsius
  • Dew point: 6 celsius
  • Pressure: 1004 millibars
  • Remarks: None


Useful to know...